Coxsackie, New York
Current Conditions -  °F | °C
As of 10:54 AM on Saturday 20 Dec 2014 (Local Time) from KPSF Reporting Station
Overcast Overcast  
Wind Chill: 24°   Ceiling: 2400
Heat Index: 24°   Visibility: 10mi
Dew Point: 18°   Wind: 3mph
Humidity: 77%   Direction: 260°W
Pressure: 30.21"   Gusts: NA
Location:  42.35°N, 73.8°W
Report Text: KPSF 201554Z AUTO 26003KT 10SM OVC024 M04/M08 A3021 RMK AO2 SLP249 T10441078
Loading
Personal Weather Stations






























Interactive Weather Map New forecast layout! Learn more

10-Day Weather Forecast

Advertisements
Track Severe Weather on mobile